sensor_id;sensor_type;location;lat;lon;timestamp;P1;durP1;ratioP1;P2;durP2;ratioP2
15712;SDS011;7957;51.608;6.916;2023-08-06T00:01:39;4.57;;;4.17;;
15712;SDS011;7957;51.608;6.916;2023-08-06T00:04:06;4.50;;;4.03;;
15712;SDS011;7957;51.608;6.916;2023-08-06T00:06:33;5.20;;;4.23;;
15712;SDS011;7957;51.608;6.916;2023-08-06T00:09:00;4.00;;;3.70;;
15712;SDS011;7957;51.608;6.916;2023-08-06T00:11:27;4.30;;;4.00;;
15712;SDS011;7957;51.608;6.916;2023-08-06T00:13:55;5.30;;;4.80;;
15712;SDS011;7957;51.608;6.916;2023-08-06T00:16:22;6.00;;;5.47;;
15712;SDS011;7957;51.608;6.916;2023-08-06T00:18:49;5.67;;;5.27;;
15712;SDS011;7957;51.608;6.916;2023-08-06T00:21:16;7.00;;;6.30;;
15712;SDS011;7957;51.608;6.916;2023-08-06T00:23:43;5.80;;;5.30;;
15712;SDS011;7957;51.608;6.916;2023-08-06T00:26:10;6.60;;;6.00;;
15712;SDS011;7957;51.608;6.916;2023-08-06T00:28:37;6.70;;;6.10;;
15712;SDS011;7957;51.608;6.916;2023-08-06T00:31:05;7.50;;;5.77;;
15712;SDS011;7957;51.608;6.916;2023-08-06T00:33:32;6.83;;;5.50;;
15712;SDS011;7957;51.608;6.916;2023-08-06T00:35:58;6.00;;;5.40;;
15712;SDS011;7957;51.608;6.916;2023-08-06T00:38:25;5.97;;;5.37;;
15712;SDS011;7957;51.608;6.916;2023-08-06T00:40:52;6.00;;;5.40;;
15712;SDS011;7957;51.608;6.916;2023-08-06T00:43:22;6.03;;;5.43;;
15712;SDS011;7957;51.608;6.916;2023-08-06T00:45:48;5.73;;;5.13;;
15712;SDS011;7957;51.608;6.916;2023-08-06T00:48:17;5.20;;;4.80;;
15712;SDS011;7957;51.608;6.916;2023-08-06T00:50:44;5.23;;;4.73;;
15712;SDS011;7957;51.608;6.916;2023-08-06T00:53:12;4.80;;;4.40;;
15712;SDS011;7957;51.608;6.916;2023-08-06T00:55:39;4.90;;;4.50;;
15712;SDS011;7957;51.608;6.916;2023-08-06T00:58:07;5.07;;;4.67;;
15712;SDS011;7957;51.608;6.916;2023-08-06T01:00:36;4.97;;;4.57;;
15712;SDS011;7957;51.608;6.916;2023-08-06T01:03:04;4.90;;;4.50;;
15712;SDS011;7957;51.608;6.916;2023-08-06T01:05:33;5.50;;;4.80;;
15712;SDS011;7957;51.608;6.916;2023-08-06T01:08:12;4.50;;;4.10;;
15712;SDS011;7957;51.608;6.916;2023-08-06T01:10:50;5.00;;;4.43;;
15712;SDS011;7957;51.608;6.916;2023-08-06T01:13:25;4.37;;;4.03;;
15712;SDS011;7957;51.608;6.916;2023-08-06T01:15:58;4.70;;;4.10;;
15712;SDS011;7957;51.608;6.916;2023-08-06T01:18:25;5.03;;;4.33;;
15712;SDS011;7957;51.608;6.916;2023-08-06T01:20:54;4.93;;;4.53;;
15712;SDS011;7957;51.608;6.916;2023-08-06T01:23:21;4.97;;;4.53;;
15712;SDS011;7957;51.608;6.916;2023-08-06T01:25:49;5.00;;;4.60;;
15712;SDS011;7957;51.608;6.916;2023-08-06T01:28:26;4.87;;;4.47;;
15712;SDS011;7957;51.608;6.916;2023-08-06T01:30:59;4.70;;;4.30;;
15712;SDS011;7957;51.608;6.916;2023-08-06T01:33:28;4.87;;;4.50;;
15712;SDS011;7957;51.608;6.916;2023-08-06T01:35:59;4.47;;;4.07;;
15712;SDS011;7957;51.608;6.916;2023-08-06T01:38:28;4.90;;;4.50;;
15712;SDS011;7957;51.608;6.916;2023-08-06T01:40:55;6.97;;;3.93;;
15712;SDS011;7957;51.608;6.916;2023-08-06T01:43:22;5.33;;;4.10;;
15712;SDS011;7957;51.608;6.916;2023-08-06T01:45:49;4.07;;;3.77;;
15712;SDS011;7957;51.608;6.916;2023-08-06T01:48:16;4.67;;;4.27;;
15712;SDS011;7957;51.608;6.916;2023-08-06T01:50:43;5.00;;;4.20;;
15712;SDS011;7957;51.608;6.916;2023-08-06T01:53:11;4.47;;;4.07;;
15712;SDS011;7957;51.608;6.916;2023-08-06T01:55:38;4.23;;;3.93;;
15712;SDS011;7957;51.608;6.916;2023-08-06T01:58:05;4.10;;;3.80;;
15712;SDS011;7957;51.608;6.916;2023-08-06T02:00:31;6.97;;;4.07;;
15712;SDS011;7957;51.608;6.916;2023-08-06T02:02:58;4.27;;;3.97;;
15712;SDS011;7957;51.608;6.916;2023-08-06T02:05:25;3.90;;;3.60;;
15712;SDS011;7957;51.608;6.916;2023-08-06T02:07:52;4.73;;;3.80;;
15712;SDS011;7957;51.608;6.916;2023-08-06T02:10:20;4.33;;;3.73;;
15712;SDS011;7957;51.608;6.916;2023-08-06T02:12:47;3.90;;;3.60;;
15712;SDS011;7957;51.608;6.916;2023-08-06T02:15:14;4.07;;;3.77;;
15712;SDS011;7957;51.608;6.916;2023-08-06T02:17:41;3.90;;;3.50;;
15712;SDS011;7957;51.608;6.916;2023-08-06T02:20:08;4.10;;;3.80;;
15712;SDS011;7957;51.608;6.916;2023-08-06T02:22:35;4.10;;;3.80;;
15712;SDS011;7957;51.608;6.916;2023-08-06T02:25:02;4.07;;;3.70;;
15712;SDS011;7957;51.608;6.916;2023-08-06T02:27:31;6.00;;;4.17;;
15712;SDS011;7957;51.608;6.916;2023-08-06T02:29:58;4.03;;;3.73;;
15712;SDS011;7957;51.608;6.916;2023-08-06T02:32:25;4.43;;;4.07;;
15712;SDS011;7957;51.608;6.916;2023-08-06T02:34:52;4.30;;;3.87;;
15712;SDS011;7957;51.608;6.916;2023-08-06T02:37:18;5.60;;;3.67;;
15712;SDS011;7957;51.608;6.916;2023-08-06T02:39:45;4.07;;;3.73;;
15712;SDS011;7957;51.608;6.916;2023-08-06T02:42:12;3.90;;;3.50;;
15712;SDS011;7957;51.608;6.916;2023-08-06T02:44:40;3.80;;;3.50;;
15712;SDS011;7957;51.608;6.916;2023-08-06T02:47:07;3.80;;;3.50;;
15712;SDS011;7957;51.608;6.916;2023-08-06T02:49:34;4.50;;;3.60;;
15712;SDS011;7957;51.608;6.916;2023-08-06T02:52:01;4.20;;;3.43;;
15712;SDS011;7957;51.608;6.916;2023-08-06T02:54:28;3.93;;;3.60;;
15712;SDS011;7957;51.608;6.916;2023-08-06T02:56:56;3.90;;;3.60;;
15712;SDS011;7957;51.608;6.916;2023-08-06T02:59:22;5.73;;;3.87;;
15712;SDS011;7957;51.608;6.916;2023-08-06T03:01:51;4.20;;;3.80;;
15712;SDS011;7957;51.608;6.916;2023-08-06T03:04:18;4.33;;;3.73;;
15712;SDS011;7957;51.608;6.916;2023-08-06T03:06:45;4.20;;;3.50;;
15712;SDS011;7957;51.608;6.916;2023-08-06T03:09:12;3.67;;;3.37;;
15712;SDS011;7957;51.608;6.916;2023-08-06T03:11:38;3.93;;;3.63;;
15712;SDS011;7957;51.608;6.916;2023-08-06T03:14:05;4.83;;;3.43;;
15712;SDS011;7957;51.608;6.916;2023-08-06T03:16:32;3.90;;;3.60;;
15712;SDS011;7957;51.608;6.916;2023-08-06T03:19:00;4.53;;;3.53;;
15712;SDS011;7957;51.608;6.916;2023-08-06T03:21:27;4.40;;;3.73;;
15712;SDS011;7957;51.608;6.916;2023-08-06T03:23:54;4.10;;;3.80;;
15712;SDS011;7957;51.608;6.916;2023-08-06T03:26:21;3.70;;;3.40;;
15712;SDS011;7957;51.608;6.916;2023-08-06T03:28:48;4.20;;;3.63;;
15712;SDS011;7957;51.608;6.916;2023-08-06T03:31:15;3.93;;;3.60;;
15712;SDS011;7957;51.608;6.916;2023-08-06T03:33:42;3.83;;;3.50;;
15712;SDS011;7957;51.608;6.916;2023-08-06T03:36:10;3.73;;;3.40;;
15712;SDS011;7957;51.608;6.916;2023-08-06T03:38:37;4.50;;;3.50;;
15712;SDS011;7957;51.608;6.916;2023-08-06T03:41:04;3.33;;;3.10;;
15712;SDS011;7957;51.608;6.916;2023-08-06T03:43:31;3.63;;;3.33;;
15712;SDS011;7957;51.608;6.916;2023-08-06T03:45:58;3.20;;;2.97;;
15712;SDS011;7957;51.608;6.916;2023-08-06T03:48:24;3.83;;;3.53;;
15712;SDS011;7957;51.608;6.916;2023-08-06T03:50:51;3.80;;;3.37;;
15712;SDS011;7957;51.608;6.916;2023-08-06T03:53:20;3.63;;;3.33;;
15712;SDS011;7957;51.608;6.916;2023-08-06T03:55:47;3.60;;;3.30;;
15712;SDS011;7957;51.608;6.916;2023-08-06T03:58:14;4.10;;;3.77;;
15712;SDS011;7957;51.608;6.916;2023-08-06T04:00:41;4.63;;;3.77;;
15712;SDS011;7957;51.608;6.916;2023-08-06T04:03:07;3.87;;;3.47;;
15712;SDS011;7957;51.608;6.916;2023-08-06T04:05:34;3.97;;;3.60;;
15712;SDS011;7957;51.608;6.916;2023-08-06T04:08:01;3.70;;;3.40;;
15712;SDS011;7957;51.608;6.916;2023-08-06T04:10:29;4.10;;;3.77;;
15712;SDS011;7957;51.608;6.916;2023-08-06T04:12:56;4.73;;;3.50;;
15712;SDS011;7957;51.608;6.916;2023-08-06T04:15:23;3.97;;;3.60;;
15712;SDS011;7957;51.608;6.916;2023-08-06T04:17:50;4.40;;;3.60;;
15712;SDS011;7957;51.608;6.916;2023-08-06T04:20:17;3.70;;;3.30;;
15712;SDS011;7957;51.608;6.916;2023-08-06T04:22:44;3.93;;;3.63;;
15712;SDS011;7957;51.608;6.916;2023-08-06T04:25:11;3.70;;;3.40;;
15712;SDS011;7957;51.608;6.916;2023-08-06T04:27:39;4.37;;;3.70;;
15712;SDS011;7957;51.608;6.916;2023-08-06T04:30:07;5.50;;;3.93;;
15712;SDS011;7957;51.608;6.916;2023-08-06T04:32:34;3.40;;;3.20;;
15712;SDS011;7957;51.608;6.916;2023-08-06T04:35:01;3.97;;;3.67;;
15712;SDS011;7957;51.608;6.916;2023-08-06T04:37:28;5.20;;;3.67;;
15712;SDS011;7957;51.608;6.916;2023-08-06T04:39:55;4.07;;;3.70;;
15712;SDS011;7957;51.608;6.916;2023-08-06T04:42:22;5.63;;;3.67;;
15712;SDS011;7957;51.608;6.916;2023-08-06T04:44:50;3.80;;;3.37;;
15712;SDS011;7957;51.608;6.916;2023-08-06T04:47:17;3.90;;;3.50;;
15712;SDS011;7957;51.608;6.916;2023-08-06T04:49:44;6.13;;;3.70;;
15712;SDS011;7957;51.608;6.916;2023-08-06T04:52:11;3.93;;;3.63;;
15712;SDS011;7957;51.608;6.916;2023-08-06T04:54:38;4.80;;;3.77;;
15712;SDS011;7957;51.608;6.916;2023-08-06T04:57:05;4.23;;;3.80;;
15712;SDS011;7957;51.608;6.916;2023-08-06T04:59:32;4.47;;;4.07;;
15712;SDS011;7957;51.608;6.916;2023-08-06T05:02:00;3.90;;;3.50;;
15712;SDS011;7957;51.608;6.916;2023-08-06T05:04:27;3.90;;;3.60;;
15712;SDS011;7957;51.608;6.916;2023-08-06T05:06:54;4.07;;;3.70;;
15712;SDS011;7957;51.608;6.916;2023-08-06T05:09:21;4.37;;;3.97;;
15712;SDS011;7957;51.608;6.916;2023-08-06T05:11:48;4.00;;;3.63;;
15712;SDS011;7957;51.608;6.916;2023-08-06T05:14:15;4.17;;;3.77;;
15712;SDS011;7957;51.608;6.916;2023-08-06T05:16:42;4.77;;;3.43;;
15712;SDS011;7957;51.608;6.916;2023-08-06T05:19:11;5.10;;;3.77;;
15712;SDS011;7957;51.608;6.916;2023-08-06T05:21:38;4.57;;;3.73;;
15712;SDS011;7957;51.608;6.916;2023-08-06T05:24:05;3.63;;;3.33;;
15712;SDS011;7957;51.608;6.916;2023-08-06T05:26:32;4.47;;;4.10;;
15712;SDS011;7957;51.608;6.916;2023-08-06T05:28:58;4.40;;;4.00;;
15712;SDS011;7957;51.608;6.916;2023-08-06T05:31:25;4.00;;;3.70;;
15712;SDS011;7957;51.608;6.916;2023-08-06T05:33:53;4.87;;;3.83;;
15712;SDS011;7957;51.608;6.916;2023-08-06T05:36:22;4.00;;;3.70;;
15712;SDS011;7957;51.608;6.916;2023-08-06T05:38:49;3.93;;;3.53;;
15712;SDS011;7957;51.608;6.916;2023-08-06T05:41:15;4.70;;;4.00;;
15712;SDS011;7957;51.608;6.916;2023-08-06T05:43:42;4.10;;;3.80;;
15712;SDS011;7957;51.608;6.916;2023-08-06T05:46:09;3.50;;;3.20;;
15712;SDS011;7957;51.608;6.916;2023-08-06T05:48:36;3.90;;;3.60;;
15712;SDS011;7957;51.608;6.916;2023-08-06T05:51:03;4.47;;;4.07;;
15712;SDS011;7957;51.608;6.916;2023-08-06T05:53:31;4.50;;;4.07;;
15712;SDS011;7957;51.608;6.916;2023-08-06T05:55:58;4.47;;;4.03;;
15712;SDS011;7957;51.608;6.916;2023-08-06T05:58:25;4.53;;;4.13;;
15712;SDS011;7957;51.608;6.916;2023-08-06T06:00:54;5.03;;;3.90;;
15712;SDS011;7957;51.608;6.916;2023-08-06T06:03:21;4.57;;;4.17;;
15712;SDS011;7957;51.608;6.916;2023-08-06T06:05:47;4.30;;;4.00;;
15712;SDS011;7957;51.608;6.916;2023-08-06T06:08:15;6.13;;;3.80;;
15712;SDS011;7957;51.608;6.916;2023-08-06T06:10:43;3.60;;;3.30;;
15712;SDS011;7957;51.608;6.916;2023-08-06T06:13:10;5.40;;;3.93;;
15712;SDS011;7957;51.608;6.916;2023-08-06T06:15:37;4.33;;;3.93;;
15712;SDS011;7957;51.608;6.916;2023-08-06T06:18:04;4.10;;;3.80;;
15712;SDS011;7957;51.608;6.916;2023-08-06T06:20:31;4.60;;;4.20;;
15712;SDS011;7957;51.608;6.916;2023-08-06T06:22:59;3.80;;;3.50;;
15712;SDS011;7957;51.608;6.916;2023-08-06T06:25:25;4.60;;;3.70;;
15712;SDS011;7957;51.608;6.916;2023-08-06T06:27:54;5.43;;;4.07;;
15712;SDS011;7957;51.608;6.916;2023-08-06T06:30:20;4.20;;;3.80;;
15712;SDS011;7957;51.608;6.916;2023-08-06T06:32:47;4.27;;;3.97;;
15712;SDS011;7957;51.608;6.916;2023-08-06T06:35:15;4.80;;;4.10;;
15712;SDS011;7957;51.608;6.916;2023-08-06T06:37:42;4.83;;;3.60;;
15712;SDS011;7957;51.608;6.916;2023-08-06T06:40:09;3.90;;;3.60;;
15712;SDS011;7957;51.608;6.916;2023-08-06T06:42:37;3.47;;;3.17;;
15712;SDS011;7957;51.608;6.916;2023-08-06T06:45:06;3.37;;;3.10;;
15712;SDS011;7957;51.608;6.916;2023-08-06T06:47:33;3.57;;;3.27;;
15712;SDS011;7957;51.608;6.916;2023-08-06T06:50:00;4.20;;;3.20;;
15712;SDS011;7957;51.608;6.916;2023-08-06T06:52:27;3.70;;;3.40;;
15712;SDS011;7957;51.608;6.916;2023-08-06T06:54:54;3.63;;;3.33;;
15712;SDS011;7957;51.608;6.916;2023-08-06T06:57:21;3.40;;;3.20;;
15712;SDS011;7957;51.608;6.916;2023-08-06T06:59:48;3.57;;;3.27;;
15712;SDS011;7957;51.608;6.916;2023-08-06T07:02:16;5.40;;;3.40;;
15712;SDS011;7957;51.608;6.916;2023-08-06T07:04:44;3.20;;;3.00;;
15712;SDS011;7957;51.608;6.916;2023-08-06T07:07:13;3.50;;;3.20;;
15712;SDS011;7957;51.608;6.916;2023-08-06T07:09:40;3.10;;;2.80;;
15712;SDS011;7957;51.608;6.916;2023-08-06T07:12:07;3.30;;;3.00;;
15712;SDS011;7957;51.608;6.916;2023-08-06T07:14:36;3.20;;;3.00;;
15712;SDS011;7957;51.608;6.916;2023-08-06T07:17:04;3.30;;;3.10;;
15712;SDS011;7957;51.608;6.916;2023-08-06T07:19:33;3.00;;;2.80;;
15712;SDS011;7957;51.608;6.916;2023-08-06T07:21:59;2.70;;;2.50;;
15712;SDS011;7957;51.608;6.916;2023-08-06T07:24:26;3.00;;;2.80;;
15712;SDS011;7957;51.608;6.916;2023-08-06T07:26:53;3.10;;;2.83;;
15712;SDS011;7957;51.608;6.916;2023-08-06T07:29:20;2.80;;;2.60;;
15712;SDS011;7957;51.608;6.916;2023-08-06T07:31:47;3.60;;;3.03;;
15712;SDS011;7957;51.608;6.916;2023-08-06T07:34:15;3.20;;;3.00;;
15712;SDS011;7957;51.608;6.916;2023-08-06T07:36:44;3.37;;;3.07;;
15712;SDS011;7957;51.608;6.916;2023-08-06T07:39:14;3.43;;;2.93;;
15712;SDS011;7957;51.608;6.916;2023-08-06T07:41:42;3.30;;;2.97;;
15712;SDS011;7957;51.608;6.916;2023-08-06T07:44:10;4.13;;;3.23;;
15712;SDS011;7957;51.608;6.916;2023-08-06T07:46:37;3.00;;;2.73;;
15712;SDS011;7957;51.608;6.916;2023-08-06T07:49:05;3.10;;;2.80;;
15712;SDS011;7957;51.608;6.916;2023-08-06T07:51:31;3.20;;;2.90;;
15712;SDS011;7957;51.608;6.916;2023-08-06T07:54:00;3.37;;;2.63;;
15712;SDS011;7957;51.608;6.916;2023-08-06T07:56:27;3.27;;;2.97;;
15712;SDS011;7957;51.608;6.916;2023-08-06T07:58:53;4.07;;;2.80;;
15712;SDS011;7957;51.608;6.916;2023-08-06T08:01:20;3.17;;;2.97;;
15712;SDS011;7957;51.608;6.916;2023-08-06T08:03:47;3.27;;;2.87;;
15712;SDS011;7957;51.608;6.916;2023-08-06T08:06:14;4.03;;;2.67;;
15712;SDS011;7957;51.608;6.916;2023-08-06T08:08:41;3.30;;;3.00;;
15712;SDS011;7957;51.608;6.916;2023-08-06T08:11:10;3.90;;;2.67;;
15712;SDS011;7957;51.608;6.916;2023-08-06T08:13:37;3.23;;;2.93;;
15712;SDS011;7957;51.608;6.916;2023-08-06T08:16:03;4.37;;;3.20;;
15712;SDS011;7957;51.608;6.916;2023-08-06T08:18:30;3.20;;;2.90;;
15712;SDS011;7957;51.608;6.916;2023-08-06T08:20:57;4.10;;;3.10;;
15712;SDS011;7957;51.608;6.916;2023-08-06T08:23:24;3.43;;;2.70;;
15712;SDS011;7957;51.608;6.916;2023-08-06T08:25:51;4.23;;;3.00;;
15712;SDS011;7957;51.608;6.916;2023-08-06T08:28:19;3.83;;;3.20;;
15712;SDS011;7957;51.608;6.916;2023-08-06T08:30:47;3.77;;;3.10;;
15712;SDS011;7957;51.608;6.916;2023-08-06T08:33:14;3.00;;;2.80;;
15712;SDS011;7957;51.608;6.916;2023-08-06T08:35:41;3.40;;;3.10;;
15712;SDS011;7957;51.608;6.916;2023-08-06T08:38:08;4.37;;;2.80;;
15712;SDS011;7957;51.608;6.916;2023-08-06T08:40:34;3.33;;;2.73;;
15712;SDS011;7957;51.608;6.916;2023-08-06T08:43:05;4.23;;;2.70;;
15712;SDS011;7957;51.608;6.916;2023-08-06T08:45:34;3.03;;;2.80;;
15712;SDS011;7957;51.608;6.916;2023-08-06T08:48:05;2.93;;;2.73;;
15712;SDS011;7957;51.608;6.916;2023-08-06T08:50:32;3.27;;;2.77;;
15712;SDS011;7957;51.608;6.916;2023-08-06T08:53:00;2.67;;;2.47;;
15712;SDS011;7957;51.608;6.916;2023-08-06T08:55:27;3.20;;;2.90;;
15712;SDS011;7957;51.608;6.916;2023-08-06T08:57:54;4.47;;;2.93;;
15712;SDS011;7957;51.608;6.916;2023-08-06T09:00:21;2.93;;;2.70;;
15712;SDS011;7957;51.608;6.916;2023-08-06T09:02:50;3.67;;;2.97;;
15712;SDS011;7957;51.608;6.916;2023-08-06T09:05:17;2.83;;;2.63;;
15712;SDS011;7957;51.608;6.916;2023-08-06T09:07:46;4.47;;;2.93;;
15712;SDS011;7957;51.608;6.916;2023-08-06T09:10:16;3.23;;;2.90;;
15712;SDS011;7957;51.608;6.916;2023-08-06T09:12:44;3.17;;;2.87;;
15712;SDS011;7957;51.608;6.916;2023-08-06T09:15:11;3.47;;;3.17;;
15712;SDS011;7957;51.608;6.916;2023-08-06T09:17:38;3.30;;;3.00;;
15712;SDS011;7957;51.608;6.916;2023-08-06T09:20:13;3.37;;;2.77;;
15712;SDS011;7957;51.608;6.916;2023-08-06T09:22:41;4.00;;;3.60;;
15712;SDS011;7957;51.608;6.916;2023-08-06T09:25:09;3.40;;;3.10;;
15712;SDS011;7957;51.608;6.916;2023-08-06T09:27:38;2.90;;;2.57;;
15712;SDS011;7957;51.608;6.916;2023-08-06T09:30:06;3.50;;;3.20;;
15712;SDS011;7957;51.608;6.916;2023-08-06T09:32:46;5.30;;;3.80;;
15712;SDS011;7957;51.608;6.916;2023-08-06T09:35:16;3.83;;;3.30;;
15712;SDS011;7957;51.608;6.916;2023-08-06T09:37:43;3.70;;;3.33;;
15712;SDS011;7957;51.608;6.916;2023-08-06T09:40:24;4.17;;;3.80;;
15712;SDS011;7957;51.608;6.916;2023-08-06T09:42:51;3.50;;;3.13;;
15712;SDS011;7957;51.608;6.916;2023-08-06T09:45:18;4.20;;;3.80;;
15712;SDS011;7957;51.608;6.916;2023-08-06T09:47:46;4.10;;;3.70;;
15712;SDS011;7957;51.608;6.916;2023-08-06T09:50:18;4.00;;;3.70;;
15712;SDS011;7957;51.608;6.916;2023-08-06T09:52:46;3.77;;;3.47;;
15712;SDS011;7957;51.608;6.916;2023-08-06T09:55:14;4.47;;;4.10;;
15712;SDS011;7957;51.608;6.916;2023-08-06T09:57:41;5.80;;;5.07;;
15712;SDS011;7957;51.608;6.916;2023-08-06T10:00:09;5.83;;;5.30;;
15712;SDS011;7957;51.608;6.916;2023-08-06T10:02:40;5.37;;;4.87;;
15712;SDS011;7957;51.608;6.916;2023-08-06T10:05:07;4.30;;;3.97;;
15712;SDS011;7957;51.608;6.916;2023-08-06T10:07:36;4.83;;;4.43;;
15712;SDS011;7957;51.608;6.916;2023-08-06T10:10:05;6.53;;;5.93;;
15712;SDS011;7957;51.608;6.916;2023-08-06T10:12:34;6.17;;;5.67;;
15712;SDS011;7957;51.608;6.916;2023-08-06T10:15:04;5.77;;;5.20;;
15712;SDS011;7957;51.608;6.916;2023-08-06T10:17:36;6.03;;;5.50;;
15712;SDS011;7957;51.608;6.916;2023-08-06T10:20:04;5.40;;;5.00;;
15712;SDS011;7957;51.608;6.916;2023-08-06T10:22:33;5.27;;;4.87;;
15712;SDS011;7957;51.608;6.916;2023-08-06T10:25:02;4.80;;;4.40;;
15712;SDS011;7957;51.608;6.916;2023-08-06T10:27:31;5.00;;;4.60;;
15712;SDS011;7957;51.608;6.916;2023-08-06T10:30:21;4.80;;;4.40;;
15712;SDS011;7957;51.608;6.916;2023-08-06T10:32:48;5.23;;;4.83;;
15712;SDS011;7957;51.608;6.916;2023-08-06T10:35:32;5.10;;;4.70;;
15712;SDS011;7957;51.608;6.916;2023-08-06T10:38:34;4.90;;;4.50;;
15712;SDS011;7957;51.608;6.916;2023-08-06T10:41:14;4.97;;;4.47;;
15712;SDS011;7957;51.608;6.916;2023-08-06T10:43:42;5.10;;;4.70;;
15712;SDS011;7957;51.608;6.916;2023-08-06T10:46:10;5.40;;;4.90;;
15712;SDS011;7957;51.608;6.916;2023-08-06T10:48:46;5.03;;;4.73;;
15712;SDS011;7957;51.608;6.916;2023-08-06T10:51:13;5.57;;;5.17;;
15712;SDS011;7957;51.608;6.916;2023-08-06T10:53:41;4.90;;;4.50;;
15712;SDS011;7957;51.608;6.916;2023-08-06T10:56:13;5.20;;;4.80;;
15712;SDS011;7957;51.608;6.916;2023-08-06T10:58:40;5.83;;;4.90;;
15712;SDS011;7957;51.608;6.916;2023-08-06T11:01:07;5.73;;;5.33;;
15712;SDS011;7957;51.608;6.916;2023-08-06T11:03:34;6.30;;;5.70;;
15712;SDS011;7957;51.608;6.916;2023-08-06T11:06:02;7.03;;;5.33;;
15712;SDS011;7957;51.608;6.916;2023-08-06T11:08:33;6.30;;;5.80;;
15712;SDS011;7957;51.608;6.916;2023-08-06T11:11:07;5.93;;;5.53;;
15712;SDS011;7957;51.608;6.916;2023-08-06T11:13:37;5.80;;;5.30;;
15712;SDS011;7957;51.608;6.916;2023-08-06T11:16:04;6.60;;;6.10;;
15712;SDS011;7957;51.608;6.916;2023-08-06T11:18:31;6.23;;;5.73;;
15712;SDS011;7957;51.608;6.916;2023-08-06T11:20:58;6.37;;;5.90;;
15712;SDS011;7957;51.608;6.916;2023-08-06T11:23:29;6.47;;;5.97;;
15712;SDS011;7957;51.608;6.916;2023-08-06T11:25:56;6.67;;;6.17;;
15712;SDS011;7957;51.608;6.916;2023-08-06T11:28:24;7.30;;;6.63;;
15712;SDS011;7957;51.608;6.916;2023-08-06T11:30:52;7.07;;;6.37;;
15712;SDS011;7957;51.608;6.916;2023-08-06T11:33:22;7.33;;;6.73;;
15712;SDS011;7957;51.608;6.916;2023-08-06T11:35:50;6.93;;;6.43;;
15712;SDS011;7957;51.608;6.916;2023-08-06T11:38:17;8.13;;;7.43;;
15712;SDS011;7957;51.608;6.916;2023-08-06T11:40:44;9.13;;;8.53;;
15712;SDS011;7957;51.608;6.916;2023-08-06T11:43:11;10.53;;;9.73;;
15712;SDS011;7957;51.608;6.916;2023-08-06T11:45:39;11.33;;;10.30;;
15712;SDS011;7957;51.608;6.916;2023-08-06T11:48:07;10.50;;;9.70;;
15712;SDS011;7957;51.608;6.916;2023-08-06T11:50:36;8.90;;;8.30;;
15712;SDS011;7957;51.608;6.916;2023-08-06T11:53:04;9.70;;;8.50;;
15712;SDS011;7957;51.608;6.916;2023-08-06T11:55:31;8.90;;;8.20;;
15712;SDS011;7957;51.608;6.916;2023-08-06T11:57:59;8.57;;;7.87;;
15712;SDS011;7957;51.608;6.916;2023-08-06T12:00:29;7.33;;;6.73;;
15712;SDS011;7957;51.608;6.916;2023-08-06T12:02:56;6.70;;;6.30;;
15712;SDS011;7957;51.608;6.916;2023-08-06T12:05:28;6.57;;;6.07;;
15712;SDS011;7957;51.608;6.916;2023-08-06T12:07:58;5.03;;;4.63;;
15712;SDS011;7957;51.608;6.916;2023-08-06T12:10:26;4.40;;;4.10;;
15712;SDS011;7957;51.608;6.916;2023-08-06T12:12:54;3.90;;;3.70;;
15712;SDS011;7957;51.608;6.916;2023-08-06T12:15:22;5.43;;;3.53;;
15712;SDS011;7957;51.608;6.916;2023-08-06T12:17:49;3.17;;;2.87;;
15712;SDS011;7957;51.608;6.916;2023-08-06T12:20:16;2.73;;;2.50;;
15712;SDS011;7957;51.608;6.916;2023-08-06T12:22:45;3.27;;;2.07;;
15712;SDS011;7957;51.608;6.916;2023-08-06T12:25:13;1.80;;;1.70;;
15712;SDS011;7957;51.608;6.916;2023-08-06T12:27:40;2.00;;;1.57;;
15712;SDS011;7957;51.608;6.916;2023-08-06T12:30:08;1.50;;;1.40;;
15712;SDS011;7957;51.608;6.916;2023-08-06T12:32:35;5.13;;;1.40;;
15712;SDS011;7957;51.608;6.916;2023-08-06T12:35:03;2.10;;;1.20;;
15712;SDS011;7957;51.608;6.916;2023-08-06T12:37:32;1.00;;;1.00;;
15712;SDS011;7957;51.608;6.916;2023-08-06T12:40:00;1.30;;;1.20;;
15712;SDS011;7957;51.608;6.916;2023-08-06T12:42:27;1.17;;;1.07;;
15712;SDS011;7957;51.608;6.916;2023-08-06T12:44:54;2.27;;;0.80;;
15712;SDS011;7957;51.608;6.916;2023-08-06T12:47:21;0.93;;;0.90;;
15712;SDS011;7957;51.608;6.916;2023-08-06T12:49:48;1.97;;;0.90;;
15712;SDS011;7957;51.608;6.916;2023-08-06T12:52:15;0.73;;;0.73;;
15712;SDS011;7957;51.608;6.916;2023-08-06T12:54:44;1.57;;;0.93;;
15712;SDS011;7957;51.608;6.916;2023-08-06T12:57:13;0.80;;;0.80;;
15712;SDS011;7957;51.608;6.916;2023-08-06T12:59:40;1.30;;;0.80;;
15712;SDS011;7957;51.608;6.916;2023-08-06T13:02:07;0.80;;;0.80;;
15712;SDS011;7957;51.608;6.916;2023-08-06T13:04:34;0.90;;;0.90;;
15712;SDS011;7957;51.608;6.916;2023-08-06T13:07:01;0.80;;;0.80;;
15712;SDS011;7957;51.608;6.916;2023-08-06T13:09:28;0.80;;;0.80;;
15712;SDS011;7957;51.608;6.916;2023-08-06T13:11:55;0.90;;;0.90;;
15712;SDS011;7957;51.608;6.916;2023-08-06T13:14:24;1.57;;;0.80;;
15712;SDS011;7957;51.608;6.916;2023-08-06T13:16:51;0.80;;;0.80;;
15712;SDS011;7957;51.608;6.916;2023-08-06T13:19:18;0.80;;;0.80;;
15712;SDS011;7957;51.608;6.916;2023-08-06T13:21:58;0.70;;;0.70;;
15712;SDS011;7957;51.608;6.916;2023-08-06T13:24:26;1.23;;;0.80;;
15712;SDS011;7957;51.608;6.916;2023-08-06T13:26:53;0.97;;;0.97;;
15712;SDS011;7957;51.608;6.916;2023-08-06T13:29:20;0.90;;;0.90;;
15712;SDS011;7957;51.608;6.916;2023-08-06T13:31:50;0.90;;;0.90;;
15712;SDS011;7957;51.608;6.916;2023-08-06T13:34:17;0.93;;;0.93;;
15712;SDS011;7957;51.608;6.916;2023-08-06T13:36:44;1.13;;;1.13;;
15712;SDS011;7957;51.608;6.916;2023-08-06T13:39:11;1.03;;;0.90;;
15712;SDS011;7957;51.608;6.916;2023-08-06T13:41:41;1.10;;;1.10;;
15712;SDS011;7957;51.608;6.916;2023-08-06T13:44:08;1.50;;;1.00;;
15712;SDS011;7957;51.608;6.916;2023-08-06T13:46:35;1.00;;;1.00;;
15712;SDS011;7957;51.608;6.916;2023-08-06T13:49:04;1.43;;;1.10;;
15712;SDS011;7957;51.608;6.916;2023-08-06T13:51:30;1.13;;;1.03;;
15712;SDS011;7957;51.608;6.916;2023-08-06T13:53:59;1.80;;;1.20;;
15712;SDS011;7957;51.608;6.916;2023-08-06T13:56:26;1.20;;;1.20;;
15712;SDS011;7957;51.608;6.916;2023-08-06T13:58:54;1.30;;;1.20;;
15712;SDS011;7957;51.608;6.916;2023-08-06T14:01:21;1.07;;;1.07;;
15712;SDS011;7957;51.608;6.916;2023-08-06T14:03:48;1.20;;;1.20;;
15712;SDS011;7957;51.608;6.916;2023-08-06T14:06:16;1.90;;;1.50;;
15712;SDS011;7957;51.608;6.916;2023-08-06T14:08:43;1.30;;;1.20;;
15712;SDS011;7957;51.608;6.916;2023-08-06T14:11:10;4.17;;;1.40;;
15712;SDS011;7957;51.608;6.916;2023-08-06T14:13:37;1.60;;;1.50;;
15712;SDS011;7957;51.608;6.916;2023-08-06T14:16:04;1.57;;;1.47;;
15712;SDS011;7957;51.608;6.916;2023-08-06T14:18:31;2.03;;;1.80;;
15712;SDS011;7957;51.608;6.916;2023-08-06T14:20:57;1.80;;;1.70;;
15712;SDS011;7957;51.608;6.916;2023-08-06T14:23:26;1.90;;;1.80;;
15712;SDS011;7957;51.608;6.916;2023-08-06T14:25:53;2.50;;;1.93;;
15712;SDS011;7957;51.608;6.916;2023-08-06T14:28:20;2.07;;;1.80;;
15712;SDS011;7957;51.608;6.916;2023-08-06T14:30:46;1.77;;;1.67;;
15712;SDS011;7957;51.608;6.916;2023-08-06T14:33:13;2.47;;;2.07;;
15712;SDS011;7957;51.608;6.916;2023-08-06T14:35:40;2.07;;;1.97;;
15712;SDS011;7957;51.608;6.916;2023-08-06T14:38:07;2.30;;;2.10;;
15712;SDS011;7957;51.608;6.916;2023-08-06T14:40:35;4.33;;;2.10;;
15712;SDS011;7957;51.608;6.916;2023-08-06T14:43:03;2.20;;;2.10;;
15712;SDS011;7957;51.608;6.916;2023-08-06T14:45:31;2.87;;;2.50;;
15712;SDS011;7957;51.608;6.916;2023-08-06T14:47:58;2.80;;;2.60;;
15712;SDS011;7957;51.608;6.916;2023-08-06T14:50:25;2.37;;;2.20;;
15712;SDS011;7957;51.608;6.916;2023-08-06T14:52:52;2.73;;;2.40;;
15712;SDS011;7957;51.608;6.916;2023-08-06T14:55:23;2.80;;;2.50;;
15712;SDS011;7957;51.608;6.916;2023-08-06T14:57:52;2.93;;;2.57;;
15712;SDS011;7957;51.608;6.916;2023-08-06T15:00:19;2.70;;;2.50;;
15712;SDS011;7957;51.608;6.916;2023-08-06T15:02:46;2.80;;;2.60;;
15712;SDS011;7957;51.608;6.916;2023-08-06T15:05:13;3.60;;;2.70;;